Time;durP1;ratioP1;P1;durP2;ratioP2;P2;SDS_P1;SDS_P2;PMS_P1;PMS_P2;Temp;Humidity;BMP_temperature;BMP_pressure;BME280_temperature;BME280_humidity;BME280_pressure;Samples;Min_cycle;Max_cycle;Signal;HPM_P1;HPM_P2
2023/09/15 00:02:01;;;;;;;19.90;18.20;;;;;;;19.53;100.00;100138.46;88292;280;138159;-66
2023/09/15 00:04:06;;;;;;;;;;;;;;;19.52;100.00;100139.70;88408;283;137702;-65
2023/09/15 00:06:08;;;;;;;;;;;;;;;19.48;100.00;100146.48;88615;281;23421;-64
2023/09/15 00:08:10;;;;;;;28.30;25.50;;;;;;;19.40;100.00;100143.66;88373;282;123596;-64
2023/09/15 00:10:13;;;;;;;28.20;25.40;;;;;;;19.38;100.00;100147.21;88517;282;22636;-65
2023/09/15 00:12:14;;;;;;;25.90;23.40;;;;;;;19.37;100.00;100149.52;88262;275;137748;-64
2023/09/15 00:14:18;;;;;;;22.90;20.70;;;;;;;19.38;100.00;100148.51;88409;279;25089;-66
2023/09/15 00:16:20;;;;;;;19.20;17.40;;;;;;;19.40;100.00;100148.31;88352;274;137888;-65
2023/09/15 00:18:22;;;;;;;18.30;16.50;;;;;;;19.34;100.00;100148.08;88403;277;22537;-67
2023/09/15 00:20:25;;;;;;;17.00;15.30;;;;;;;19.25;100.00;100154.29;88214;276;138195;-68
2023/09/15 00:22:27;;;;;;;17.00;15.60;;;;;;;19.22;100.00;100154.68;88664;280;22552;-69
2023/09/15 00:24:28;;;;;;;17.30;15.90;;;;;;;19.19;100.00;100160.00;88278;276;139045;-67
2023/09/15 00:26:30;;;;;;;17.50;15.90;;;;;;;19.14;100.00;100160.47;88478;276;22606;-65
2023/09/15 00:28:33;;;;;;;17.20;15.70;;;;;;;19.02;100.00;100161.66;88407;280;138726;-72
2023/09/15 00:30:37;;;;;;;17.60;16.10;;;;;;;18.97;100.00;100160.77;88416;282;22549;-66
2023/09/15 00:32:40;;;;;;;17.90;16.20;;;;;;;18.81;100.00;100159.72;88406;282;137574;-68
2023/09/15 00:34:42;;;;;;;15.60;14.20;;;;;;;18.70;100.00;100160.13;88633;275;22621;-70
2023/09/15 00:36:45;;;;;;;16.40;15.10;;;;;;;18.66;100.00;100162.64;88457;274;137347;-75
2023/09/15 00:38:47;;;;;;;15.20;13.80;;;;;;;18.62;100.00;100161.19;88583;282;24885;-67
2023/09/15 00:40:50;;;;;;;14.30;13.00;;;;;;;18.57;100.00;100159.80;88355;282;139801;-70
2023/09/15 00:42:53;;;;;;;14.40;13.10;;;;;;;18.54;100.00;100161.00;88424;283;25206;-64
2023/09/15 00:44:55;;;;;;;12.90;11.80;;;;;;;18.53;100.00;100158.65;88406;282;137623;-62
2023/09/15 00:46:56;;;;;;;13.60;12.30;;;;;;;18.47;100.00;100156.84;88284;280;24027;-63
2023/09/15 00:48:59;;;;;;;12.80;11.50;;;;;;;18.42;100.00;100161.40;88355;283;137694;-64
2023/09/15 00:51:06;;;;;;;14.10;12.80;;;;;;;18.37;100.00;100161.58;88565;282;25185;-67
2023/09/15 00:53:15;;;;;;;12.50;11.50;;;;;;;18.41;100.00;100164.08;88395;275;137568;-67
2023/09/15 00:55:21;;;;;;;12.10;10.70;;;;;;;18.42;100.00;100168.48;88426;276;22899;-67
2023/09/15 00:57:25;;;;;;;11.80;10.90;;;;;;;18.40;100.00;100167.80;88466;282;137674;-66
2023/09/15 00:59:27;;;;;;;11.90;10.70;;;;;;;18.41;100.00;100174.92;88538;282;24773;-65
2023/09/15 01:01:29;;;;;;;11.10;10.20;;;;;;;18.41;100.00;100176.45;88323;276;137741;-67
2023/09/15 01:03:35;;;;;;;10.40;9.60;;;;;;;18.40;100.00;100178.55;88565;281;22530;-64
2023/09/15 01:05:42;;;;;;;10.80;10.00;;;;;;;18.37;100.00;100178.53;88361;274;138705;-66
2023/09/15 01:07:45;;;;;;;11.60;10.60;;;;;;;18.36;100.00;100177.64;88503;282;24056;-65
2023/09/15 01:09:47;;;;;;;12.10;11.00;;;;;;;18.38;100.00;100178.13;88376;282;137409;-67
2023/09/15 01:11:51;;;;;;;10.50;9.60;;;;;;;18.36;100.00;100178.02;88419;283;22558;-67
2023/09/15 01:13:53;;;;;;;10.00;9.00;;;;;;;18.32;100.00;100176.57;88420;282;137339;-67
2023/09/15 01:16:11;;;;;;;10.20;9.40;;;;;;;18.33;100.00;100177.65;88489;279;22537;-64
2023/09/15 01:18:26;;;;;;;9.50;8.70;;;;;;;18.36;100.00;100178.90;88491;283;22545;-69
2023/09/15 01:20:54;;;;;;;9.80;8.70;;;;;;;18.38;100.00;100180.17;88327;282;137000;-69
2023/09/15 01:23:23;;;;;;;9.80;8.80;;;;;;;18.38;100.00;100187.14;88513;278;22542;-67
2023/09/15 01:26:02;;;;;;;10.00;9.00;;;;;;;18.32;100.00;100190.11;88423;281;137370;-72
2023/09/15 01:28:19;;;;;;;10.50;9.70;;;;;;;18.30;100.00;100196.64;88342;279;137567;-65
2023/09/15 01:30:24;;;;;;;10.90;9.90;;;;;;;18.26;100.00;100199.50;88473;282;25000;-65
2023/09/15 01:32:28;;;;;;;;;;;;;;;18.34;100.00;100200.71;88360;276;137390;-64
2023/09/15 01:34:30;;;;;;;10.00;9.20;;;;;;;18.38;100.00;100205.04;88494;283;25223;-71
2023/09/15 01:36:31;;;;;;;10.50;9.40;;;;;;;18.36;100.00;100202.80;88234;283;137269;-67
2023/09/15 01:38:33;;;;;;;10.30;9.50;;;;;;;18.42;100.00;100200.96;88387;283;25312;-65
2023/09/15 01:40:37;;;;;;;9.00;8.40;;;;;;;18.42;100.00;100201.52;88265;284;139097;-62
2023/09/15 01:42:42;;;;;;;10.20;9.00;;;;;;;18.46;100.00;100199.90;88354;283;25105;-65
2023/09/15 01:44:44;;;;;;;10.50;9.60;;;;;;;18.46;100.00;100200.11;88253;276;137153;-62
2023/09/15 01:46:45;;;;;;;8.90;8.20;;;;;;;18.46;100.00;100204.44;88383;275;24088;-68
2023/09/15 01:48:48;;;;;;;8.30;7.70;;;;;;;18.35;100.00;100213.08;88281;276;138705;-69
2023/09/15 01:50:51;;;;;;;8.80;8.10;;;;;;;18.34;100.00;100216.30;88380;276;25521;-65
2023/09/15 01:52:56;;;;;;;;;;;;;;;18.39;100.00;100219.30;88217;276;136895;-68
2023/09/15 01:54:58;;;;;;;9.00;8.30;;;;;;;18.31;100.00;100214.84;88636;279;24088;-65
2023/09/15 01:57:00;;;;;;;7.70;7.00;;;;;;;18.26;100.00;100216.38;88414;276;136995;-66
2023/09/15 01:59:04;;;;;;;9.20;8.30;;;;;;;18.24;100.00;100221.48;88383;275;24173;-69
2023/09/15 02:01:06;;;;;;;9.20;7.40;;;;;;;18.20;100.00;100224.26;88238;283;137504;-64
2023/09/15 02:03:09;;;;;;;7.80;7.00;;;;;;;18.23;100.00;100228.90;88312;278;26495;-65
2023/09/15 02:05:23;;;;;;;7.80;7.20;;;;;;;18.27;100.00;100226.27;88409;281;136709;-66
2023/09/15 02:07:25;;;;;;;7.70;7.30;;;;;;;18.28;100.00;100229.86;88472;281;22813;-73
2023/09/15 02:09:27;;;;;;;8.20;7.60;;;;;;;18.25;100.00;100233.19;88339;274;137506;-65
2023/09/15 02:11:29;;;;;;;8.50;7.70;;;;;;;18.25;100.00;100232.23;88661;274;24112;-64
2023/09/15 02:13:31;;;;;;;7.80;7.20;;;;;;;18.26;100.00;100231.92;88204;283;137306;-68
2023/09/15 02:15:32;;;;;;;8.20;7.60;;;;;;;18.29;100.00;100233.02;88399;281;23213;-66
2023/09/15 02:17:34;;;;;;;7.30;6.70;;;;;;;18.29;100.00;100236.46;88288;283;137218;-67
2023/09/15 02:19:36;;;;;;;7.50;6.90;;;;;;;18.34;100.00;100236.80;88426;284;22565;-67
2023/09/15 02:21:38;;;;;;;8.00;7.40;;;;;;;18.39;100.00;100238.52;88356;282;137178;-65
2023/09/15 02:23:40;;;;;;;7.10;6.60;;;;;;;18.39;100.00;100234.48;88444;279;22537;-65
2023/09/15 02:25:41;;;;;;;8.00;7.30;;;;;;;18.40;100.00;100233.31;88234;281;138453;-67
2023/09/15 02:27:43;;;;;;;8.30;7.60;;;;;;;18.38;100.00;100234.14;88448;280;26184;-66
2023/09/15 02:29:45;;;;;;;7.50;6.70;;;;;;;18.32;100.00;100234.35;88349;283;137291;-67
2023/09/15 02:31:51;;;;;;;7.20;6.70;;;;;;;18.29;100.00;100234.14;88416;283;22542;-64
2023/09/15 02:33:53;;;;;;;8.70;7.60;;;;;;;18.32;100.00;100237.81;88333;283;137018;-68
2023/09/15 02:35:58;;;;;;;7.70;7.10;;;;;;;18.28;100.00;100234.94;88472;282;25240;-69
2023/09/15 02:38:00;;;;;;;8.10;7.50;;;;;;;18.26;100.00;100238.63;88315;282;137189;-66
2023/09/15 02:40:04;;;;;;;7.60;7.00;;;;;;;18.25;100.00;100242.05;88414;282;22440;-66
2023/09/15 02:42:07;;;;;;;8.20;7.60;;;;;;;18.26;100.00;100241.38;88534;283;22535;-65
2023/09/15 02:44:11;;;;;;;8.20;7.60;;;;;;;18.30;100.00;100245.21;88272;282;139827;-65
2023/09/15 02:46:14;;;;;;;8.10;7.60;;;;;;;18.26;100.00;100245.99;88435;284;25298;-65
2023/09/15 02:48:16;;;;;;;7.40;6.80;;;;;;;18.23;100.00;100245.42;88267;283;137510;-66
2023/09/15 02:50:18;;;;;;;6.50;6.10;;;;;;;18.28;100.00;100246.30;88317;283;24198;-65
2023/09/15 02:52:20;;;;;;;6.90;6.30;;;;;;;18.36;100.00;100248.35;88276;276;137552;-62
2023/09/15 02:54:23;;;;;;;7.00;6.40;;;;;;;18.36;100.00;100253.36;88375;275;24688;-62
2023/09/15 02:56:25;;;;;;;7.70;7.10;;;;;;;18.37;100.00;100256.51;88454;277;136969;-65
2023/09/15 02:58:28;;;;;;;6.80;6.20;;;;;;;18.35;100.00;100253.30;88404;283;23861;-79
2023/09/15 03:00:31;;;;;;;7.00;6.40;;;;;;;18.33;100.00;100248.86;88173;285;136982;-63
2023/09/15 03:02:33;;;;;;;7.60;6.90;;;;;;;18.35;100.00;100254.59;88468;284;22708;-68
2023/09/15 03:04:35;;;;;;;7.00;6.50;;;;;;;18.36;100.00;100256.87;88325;274;137345;-65
2023/09/15 03:06:39;;;;;;;7.80;7.10;;;;;;;18.40;100.00;100260.02;88273;277;24018;-71
2023/09/15 03:08:41;;;;;;;9.10;7.70;;;;;;;18.39;100.00;100258.70;88279;282;138039;-64
2023/09/15 03:10:43;;;;;;;7.90;7.00;;;;;;;18.39;100.00;100259.73;88406;282;22542;-66
2023/09/15 03:12:45;;;;;;;8.60;8.00;;;;;;;18.39;100.00;100260.64;88342;281;137034;-69
2023/09/15 03:14:50;;;;;;;9.20;7.50;;;;;;;18.34;100.00;100260.75;88444;276;24061;-65
2023/09/15 03:16:51;;;;;;;8.90;8.20;;;;;;;18.38;100.00;100265.32;88251;282;137066;-65
2023/09/15 03:18:54;;;;;;;8.20;7.70;;;;;;;18.38;100.00;100266.19;88392;280;22543;-65
2023/09/15 03:20:56;;;;;;;8.70;8.00;;;;;;;18.37;100.00;100269.04;88322;275;137155;-69
2023/09/15 03:22:59;;;;;;;10.10;8.90;;;;;;;18.41;100.00;100272.69;88495;274;22743;-70
2023/09/15 03:25:01;;;;;;;10.10;9.40;;;;;;;18.42;100.00;100271.28;88254;280;136779;-70
2023/09/15 03:27:05;;;;;;;10.20;9.40;;;;;;;18.40;100.00;100272.77;88435;285;25086;-62
2023/09/15 03:29:07;;;;;;;10.50;9.50;;;;;;;18.41;100.00;100272.61;88375;280;137130;-66
2023/09/15 03:31:08;;;;;;;11.30;10.20;;;;;;;18.38;100.00;100278.98;88445;282;22618;-65
2023/09/15 03:33:11;;;;;;;12.90;11.50;;;;;;;18.38;100.00;100281.46;88348;283;137326;-69
2023/09/15 03:35:12;;;;;;;12.30;10.90;;;;;;;18.33;100.00;100284.83;88413;283;23313;-66
2023/09/15 03:37:16;;;;;;;12.70;11.60;;;;;;;18.29;100.00;100288.38;88351;276;137526;-69
2023/09/15 03:39:18;;;;;;;13.00;11.70;;;;;;;18.25;100.00;100288.66;88475;275;24019;-67
2023/09/15 03:41:20;;;;;;;11.10;10.20;;;;;;;18.30;100.00;100295.08;88258;281;137645;-72
2023/09/15 03:43:22;;;;;;;13.00;11.90;;;;;;;18.28;100.00;100303.79;88399;276;25246;-68
2023/09/15 03:45:23;;;;;;;11.90;10.80;;;;;;;18.29;100.00;100304.02;88250;283;136748;-68
2023/09/15 03:47:26;;;;;;;12.50;11.20;;;;;;;18.31;100.00;100304.75;88375;280;25303;-68
2023/09/15 03:49:29;;;;;;;12.60;11.50;;;;;;;18.31;100.00;100304.52;88272;285;137497;-70
2023/09/15 03:51:31;;;;;;;14.10;12.80;;;;;;;18.30;100.00;100307.02;88474;283;22565;-64
2023/09/15 03:53:33;;;;;;;14.00;12.80;;;;;;;18.32;100.00;100309.38;88377;282;138610;-64
2023/09/15 03:55:35;;;;;;;14.80;13.30;;;;;;;18.29;100.00;100311.48;88375;283;24211;-76
2023/09/15 03:57:37;;;;;;;14.60;13.50;;;;;;;18.28;100.00;100309.65;88303;280;137257;-66
2023/09/15 03:59:40;;;;;;;15.30;14.00;;;;;;;18.34;100.00;100314.02;88351;276;22656;-71
2023/09/15 04:01:46;;;;;;;17.50;15.70;;;;;;;18.41;100.00;100314.61;88130;283;137046;-63
2023/09/15 04:03:48;;;;;;;16.40;15.00;;;;;;;18.38;100.00;100317.58;88256;282;23606;-64
2023/09/15 04:05:50;;;;;;;15.20;13.80;;;;;;;18.36;100.00;100320.45;88394;276;137553;-66
2023/09/15 04:07:52;;;;;;;16.40;14.80;;;;;;;18.36;100.00;100323.58;88186;276;23628;-65
2023/09/15 04:09:54;;;;;;;15.80;14.50;;;;;;;18.43;100.00;100323.13;87639;276;686532;-66
2023/09/15 04:11:56;;;;;;;16.10;14.70;;;;;;;18.41;100.00;100324.86;88156;278;22545;-63
2023/09/15 04:13:57;;;;;;;18.10;15.40;;;;;;;18.37;100.00;100326.83;88225;282;137834;-67
2023/09/15 04:16:00;;;;;;;17.00;15.50;;;;;;;18.36;100.00;100330.43;88306;279;22846;-65
2023/09/15 04:18:04;;;;;;;17.30;15.60;;;;;;;18.41;100.00;100327.13;88338;283;137177;-67
2023/09/15 04:20:09;;;;;;;16.80;15.20;;;;;;;18.42;100.00;100328.71;88051;278;139030;-70
2023/09/15 04:22:11;;;;;;;18.80;17.10;;;;;;;18.39;100.00;100328.48;88718;277;22619;-76
2023/09/15 04:24:13;;;;;;;17.40;15.90;;;;;;;18.39;100.00;100330.65;88558;282;138235;-71
2023/09/15 04:26:15;;;;;;;18.10;16.40;;;;;;;18.35;100.00;100330.52;88422;275;25393;-73
2023/09/15 04:28:17;;;;;;;18.50;16.90;;;;;;;18.36;100.00;100333.66;88330;279;137651;-69
2023/09/15 04:30:19;;;;;;;23.50;17.80;;;;;;;18.39;100.00;100333.34;88490;275;23450;-71
2023/09/15 04:32:27;;;;;;;19.10;17.30;;;;;;;18.36;100.00;100335.66;88503;281;138736;-73
2023/09/15 04:34:29;;;;;;;18.40;16.70;;;;;;;18.36;100.00;100338.05;88340;279;22540;-72
2023/09/15 04:36:31;;;;;;;18.40;16.80;;;;;;;18.40;100.00;100338.29;88186;279;137272;-69
2023/09/15 04:38:33;;;;;;;19.10;17.10;;;;;;;18.40;100.00;100337.96;88313;283;25096;-72
2023/09/15 04:40:35;;;;;;;18.90;17.10;;;;;;;18.43;100.00;100337.57;88295;283;137657;-70
2023/09/15 04:42:41;;;;;;;18.60;17.00;;;;;;;18.47;100.00;100337.56;88557;282;22581;-71
2023/09/15 04:44:43;;;;;;;18.40;16.80;;;;;;;18.49;100.00;100340.02;88355;275;138284;-71
2023/09/15 04:46:45;;;;;;;19.20;17.40;;;;;;;18.46;100.00;100337.54;89524;282;22534;-73
2023/09/15 04:48:47;;;;;;;18.60;16.80;;;;;;;18.40;100.00;100329.20;88347;275;137394;-73
2023/09/15 04:50:50;;;;;;;19.80;18.00;;;;;;;18.48;100.00;100340.54;88606;282;22631;-71
2023/09/15 04:52:53;;;;;;;19.70;17.90;;;;;;;18.50;100.00;100341.13;88522;279;138570;-71
2023/09/15 04:54:56;;;;;;;19.70;17.80;;;;;;;18.45;100.00;100339.40;88473;284;23746;-73
2023/09/15 04:56:58;;;;;;;20.90;19.10;;;;;;;18.45;100.00;100341.09;88378;281;139066;-65
2023/09/15 04:59:01;;;;;;;20.00;18.10;;;;;;;18.45;100.00;100339.13;88285;283;22539;-68
2023/09/15 05:01:04;;;;;;;21.50;19.50;;;;;;;18.50;100.00;100339.66;88335;277;137323;-66
2023/09/15 05:03:08;;;;;;;21.40;19.40;;;;;;;18.60;100.00;100337.80;88458;282;22536;-66
2023/09/15 05:05:10;;;;;;;21.30;19.20;;;;;;;18.61;100.00;100340.13;88496;274;137338;-65
2023/09/15 05:07:15;;;;;;;19.30;17.60;;;;;;;18.61;100.00;100342.29;90946;283;26275;-64
2023/09/15 05:09:20;;;;;;;19.50;17.60;;;;;;;18.64;100.00;100344.08;88282;283;138682;-69
2023/09/15 05:11:23;;;;;;;19.40;17.60;;;;;;;18.69;100.00;100347.19;88605;276;25191;-67
2023/09/15 05:13:25;;;;;;;19.80;18.00;;;;;;;18.61;100.00;100344.77;88668;281;137871;-65
2023/09/15 05:15:29;;;;;;;19.40;17.70;;;;;;;18.66;100.00;100354.22;88849;279;22644;-64
2023/09/15 05:17:31;;;;;;;20.80;18.90;;;;;;;18.57;100.00;100361.27;88310;283;137829;-66
2023/09/15 05:19:34;;;;;;;20.90;18.80;;;;;;;18.57;100.00;100363.93;89048;278;22558;-66
2023/09/15 05:21:35;;;;;;;19.80;18.00;;;;;;;18.60;100.00;100366.77;88390;275;137595;-68
2023/09/15 05:23:38;;;;;;;21.00;18.60;;;;;;;18.63;100.00;100372.63;88471;282;22527;-65
2023/09/15 05:25:40;;;;;;;19.30;17.70;;;;;;;18.64;100.00;100374.54;88149;279;137311;-62
2023/09/15 05:27:42;;;;;;;19.60;17.60;;;;;;;18.64;100.00;100375.28;88356;282;22548;-68
2023/09/15 05:29:44;;;;;;;21.20;19.40;;;;;;;18.60;100.00;100378.13;88329;282;137381;-67
2023/09/15 05:31:46;;;;;;;19.20;17.40;;;;;;;18.60;100.00;100376.73;88309;279;22547;-65
2023/09/15 05:33:48;;;;;;;19.90;18.00;;;;;;;18.63;100.00;100376.57;88194;280;137419;-64
2023/09/15 05:35:55;;;;;;;18.30;16.80;;;;;;;18.66;100.00;100379.27;88345;275;22588;-65
2023/09/15 05:37:57;;;;;;;19.30;17.60;;;;;;;18.70;100.00;100379.89;88386;282;137402;-64
2023/09/15 05:39:59;;;;;;;18.50;16.80;;;;;;;18.66;100.00;100367.23;88413;279;24020;-62
2023/09/15 05:42:01;;;;;;;17.90;16.30;;;;;;;18.74;100.00;100384.59;88572;274;137355;-69
2023/09/15 05:44:03;;;;;;;18.50;16.80;;;;;;;18.73;100.00;100386.76;88327;272;137399;-65
2023/09/15 05:46:06;;;;;;;18.90;17.20;;;;;;;18.78;100.00;100387.32;88398;279;22528;-66
2023/09/15 05:48:12;;;;;;;17.80;16.30;;;;;;;18.90;100.00;100386.60;88732;274;139227;-68
2023/09/15 05:50:14;;;;;;;20.10;18.20;;;;;;;18.95;100.00;100390.10;88342;279;22536;-68
2023/09/15 05:52:15;;;;;;;22.20;17.50;;;;;;;18.97;100.00;100387.33;88318;274;139002;-69
2023/09/15 05:54:17;;;;;;;19.20;17.60;;;;;;;18.96;100.00;100391.89;88420;279;25087;-66
2023/09/15 05:56:19;;;;;;;18.00;16.20;;;;;;;18.94;100.00;100394.05;88252;281;137645;-68
2023/09/15 05:58:21;;;;;;;18.70;17.10;;;;;;;18.94;100.00;100394.73;88363;275;22527;-67
2023/09/15 06:00:24;;;;;;;19.40;17.60;;;;;;;18.90;100.00;100397.23;88289;278;138906;-68
2023/09/15 06:02:26;;;;;;;20.40;18.60;;;;;;;18.93;100.00;100394.43;88698;275;24059;-67
2023/09/15 06:04:28;;;;;;;20.50;18.60;;;;;;;18.98;100.00;100392.90;88397;274;137569;-65
2023/09/15 06:06:30;;;;;;;18.40;16.70;;;;;;;18.98;100.00;100391.99;89222;274;22923;-66
2023/09/15 06:08:32;;;;;;;21.30;19.30;;;;;;;18.99;100.00;100393.90;88370;275;137352;-68
2023/09/15 06:10:39;;;;;;;18.90;17.20;;;;;;;19.05;100.00;100396.81;88498;278;24026;-67
2023/09/15 06:12:42;;;;;;;19.50;17.80;;;;;;;19.04;100.00;100397.98;88366;275;137561;-67
2023/09/15 06:14:45;;;;;;;18.80;17.10;;;;;;;19.03;100.00;100399.64;88408;275;24014;-65
2023/09/15 06:16:47;;;;;;;19.40;17.70;;;;;;;19.01;100.00;100402.36;88371;279;137432;-66
2023/09/15 06:18:49;;;;;;;16.90;15.40;;;;;;;19.00;100.00;100407.85;88788;282;22680;-64
2023/09/15 06:20:55;;;;;;;19.80;18.00;;;;;;;18.99;100.00;100406.80;88500;282;137358;-63
2023/09/15 06:22:57;;;;;;;18.30;16.40;;;;;;;19.05;100.00;100410.15;88548;275;22530;-66
2023/09/15 06:24:59;;;;;;;18.70;16.90;;;;;;;19.05;100.00;100416.27;90101;281;137134;-66
2023/09/15 06:27:01;;;;;;;17.30;15.90;;;;;;;19.10;100.00;100417.85;88549;275;25083;-69
2023/09/15 06:29:03;;;;;;;19.10;17.40;;;;;;;19.01;100.00;100409.54;88354;278;137432;-71
2023/09/15 06:31:05;;;;;;;18.10;16.30;;;;;;;19.07;100.00;100423.48;88466;279;22662;-67
2023/09/15 06:33:08;;;;;;;17.30;15.70;;;;;;;19.05;100.00;100423.48;88446;278;137665;-66
2023/09/15 06:35:13;;;;;;;18.00;16.40;;;;;;;19.10;100.00;100431.85;88513;281;24944;-66
2023/09/15 06:37:15;;;;;;;17.70;16.30;;;;;;;19.14;100.00;100429.61;91200;282;137769;-67
2023/09/15 06:39:16;;;;;;;17.20;15.60;;;;;;;19.15;100.00;100424.92;91308;282;23053;-69
2023/09/15 06:41:18;;;;;;;16.00;14.60;;;;;;;19.23;100.00;100435.17;91198;282;137389;-67
2023/09/15 06:43:21;;;;;;;14.90;13.50;;;;;;;19.22;100.00;100432.83;91364;282;22389;-67
2023/09/15 06:45:23;;;;;;;14.80;13.50;;;;;;;19.16;100.00;100431.75;91225;282;137194;-64
2023/09/15 06:47:25;;;;;;;14.80;13.40;;;;;;;19.17;100.00;100438.04;91305;282;22358;-64
2023/09/15 06:49:27;;;;;;;15.30;14.10;;;;;;;19.19;100.00;100438.08;89051;281;137449;-69
2023/09/15 06:51:29;;;;;;;13.90;12.80;;;;;;;19.25;100.00;100441.20;88411;274;23975;-68
2023/09/15 06:53:31;;;;;;;14.50;13.20;;;;;;;19.28;100.00;100441.74;88364;275;137586;-68
2023/09/15 06:55:33;;;;;;;13.70;12.50;;;;;;;19.24;100.00;100442.04;88384;275;22556;-69
2023/09/15 06:57:35;;;;;;;12.90;11.80;;;;;;;19.24;100.00;100443.73;88330;273;137754;-67
2023/09/15 06:59:38;;;;;;;12.20;11.20;;;;;;;19.19;100.00;100450.67;88482;281;22534;-65
2023/09/15 07:01:39;;;;;;;11.60;10.70;;;;;;;19.21;100.00;100451.80;88338;275;137601;-66
2023/09/15 07:03:42;;;;;;;14.70;13.30;;;;;;;19.23;100.00;100453.11;88394;278;22534;-66
2023/09/15 07:05:44;;;;;;;11.80;10.70;;;;;;;19.22;100.00;100458.21;88229;274;138504;-66
2023/09/15 07:07:46;;;;;;;12.40;11.50;;;;;;;19.22;100.00;100459.91;88646;280;25154;-69
2023/09/15 07:09:48;;;;;;;12.80;11.60;;;;;;;19.16;100.00;100460.55;88275;275;138460;-66
2023/09/15 07:11:50;;;;;;;13.60;12.50;;;;;;;19.13;100.00;100461.34;88438;278;23705;-68
2023/09/15 07:13:52;;;;;;;14.70;12.70;;;;;;;19.11;100.00;100459.05;88441;275;137394;-65
2023/09/15 07:15:54;;;;;;;13.50;12.20;;;;;;;19.08;100.00;100461.12;88500;275;25173;-68
2023/09/15 07:17:56;;;;;;;13.40;12.10;;;;;;;19.04;100.00;100465.77;88310;281;137687;-66
2023/09/15 07:19:59;;;;;;;12.50;11.40;;;;;;;19.03;100.00;100469.70;88393;281;22468;-68
2023/09/15 07:22:01;;;;;;;13.50;12.40;;;;;;;18.99;100.00;100474.27;88335;274;137426;-68
2023/09/15 07:24:05;;;;;;;12.90;11.80;;;;;;;18.98;100.00;100473.52;88330;274;139179;-67
2023/09/15 07:26:06;;;;;;;14.30;12.50;;;;;;;18.96;100.00;100475.58;88403;279;23716;-67
2023/09/15 07:28:09;;;;;;;13.10;12.00;;;;;;;18.96;100.00;100475.80;88232;279;137517;-68
2023/09/15 07:30:15;;;;;;;12.90;11.70;;;;;;;18.90;100.00;100476.09;88743;274;24591;-67
2023/09/15 07:32:16;;;;;;;14.00;12.60;;;;;;;18.90;100.00;100480.91;88530;280;137273;-68
2023/09/15 07:34:21;;;;;;;14.30;12.40;;;;;;;18.94;100.00;100484.82;88747;279;22545;-66
2023/09/15 07:36:23;;;;;;;14.40;12.30;;;;;;;18.97;100.00;100488.19;88680;273;138946;-68
2023/09/15 07:38:25;;;;;;;14.60;13.00;;;;;;;18.99;100.00;100483.73;88566;281;22707;-71
2023/09/15 07:40:27;;;;;;;14.10;12.70;;;;;;;18.97;100.00;100488.95;88192;275;138379;-68
2023/09/15 07:42:29;;;;;;;13.80;12.50;;;;;;;18.92;100.00;100487.43;88365;274;22485;-66
2023/09/15 07:44:30;;;;;;;14.70;13.40;;;;;;;18.90;100.00;100489.88;88305;282;139932;-62
2023/09/15 07:46:33;;;;;;;13.20;12.00;;;;;;;18.94;100.00;100489.73;88396;279;25135;-69
2023/09/15 07:48:35;;;;;;;15.00;13.60;;;;;;;18.96;100.00;100488.97;88325;279;139086;-72
2023/09/15 07:50:37;;;;;;;16.20;13.40;;;;;;;18.95;100.00;100486.58;88847;281;22778;-73
2023/09/15 07:52:40;;;;;;;20.30;14.60;;;;;;;18.91;100.00;100484.55;88294;282;137563;-71
2023/09/15 07:54:42;;;;;;;14.60;13.20;;;;;;;19.03;100.00;100491.05;88719;283;22847;-68
2023/09/15 07:56:44;;;;;;;16.60;13.80;;;;;;;19.09;100.00;100491.21;88354;275;137626;-68
2023/09/15 07:58:46;;;;;;;14.00;12.60;;;;;;;19.14;100.00;100493.02;88413;279;22584;-68
2023/09/15 08:00:47;;;;;;;14.30;12.80;;;;;;;19.22;100.00;100490.49;88224;278;139053;-69
2023/09/15 08:02:51;;;;;;;14.60;13.20;;;;;;;19.30;100.00;100489.94;88327;274;22538;-69
2023/09/15 08:04:53;;;;;;;14.80;13.40;;;;;;;19.33;100.00;100490.09;88435;277;138395;-68
2023/09/15 08:06:55;;;;;;;15.20;13.70;;;;;;;19.31;100.00;100492.61;88506;273;22554;-67
2023/09/15 08:08:57;;;;;;;14.40;13.10;;;;;;;19.31;100.00;100495.23;89738;278;137464;-68
2023/09/15 08:12:30;;;;;;;15.20;13.80;;;;;;;19.24;100.00;100505.45;86667;303;618169;-69
2023/09/15 08:14:32;;;;;;;16.00;13.40;;;;;;;19.24;100.00;100509.17;87860;294;22547;-70
2023/09/15 08:16:34;;;;;;;14.30;13.00;;;;;;;19.23;100.00;100509.48;87887;288;136770;-68
2023/09/15 08:18:36;;;;;;;14.90;13.60;;;;;;;19.17;100.00;100518.18;88221;289;25099;-71
2023/09/15 08:20:39;;;;;;;16.50;14.40;;;;;;;19.16;100.00;100522.05;87935;290;136717;-64
2023/09/15 08:22:41;;;;;;;13.60;12.30;;;;;;;19.13;100.00;100521.11;87972;284;25304;-68
2023/09/15 08:24:43;;;;;;;14.60;13.10;;;;;;;19.07;100.00;100512.67;88378;276;136836;-67
2023/09/15 08:26:46;;;;;;;15.40;13.80;;;;;;;19.13;100.00;100521.23;88120;276;632825;-69
2023/09/15 08:28:48;;;;;;;15.80;14.50;;;;;;;19.07;100.00;100521.23;88620;273;137295;-70
2023/09/15 08:30:50;;;;;;;15.20;13.80;;;;;;;19.08;100.00;100525.34;88484;273;22632;-72
2023/09/15 08:32:52;;;;;;;18.70;15.10;;;;;;;19.09;100.00;100527.42;88313;280;136942;-70
2023/09/15 08:34:54;;;;;;;16.30;14.70;;;;;;;19.06;100.00;100528.44;88542;276;25657;-68
2023/09/15 08:36:56;;;;;;;16.90;15.40;;;;;;;18.99;100.00;100511.84;88222;274;137213;-72
2023/09/15 08:38:58;;;;;;;17.70;16.00;;;;;;;19.11;100.00;100528.42;88399;274;24081;-76
2023/09/15 08:41:12;;;;;;;17.80;16.10;;;;;;;19.15;100.00;100528.84;88142;274;137079;-71
2023/09/15 08:43:19;;;;;;;19.20;15.00;;;;;;;19.13;100.00;100521.66;89311;273;25074;-68
2023/09/15 08:45:21;;;;;;;18.50;15.90;;;;;;;19.18;100.00;100535.10;88304;272;137216;-71
2023/09/15 08:47:25;;;;;;;16.70;15.10;;;;;;;19.19;100.00;100537.57;88413;280;22657;-70
2023/09/15 08:49:30;;;;;;;18.00;16.10;;;;;;;19.19;100.00;100538.48;88534;281;137183;-71
2023/09/15 08:51:33;;;;;;;16.70;15.10;;;;;;;19.22;100.00;100541.45;88593;274;24098;-68
2023/09/15 08:53:37;;;;;;;16.20;14.70;;;;;;;19.27;100.00;100543.27;88369;280;137110;-68
2023/09/15 08:55:40;;;;;;;15.20;13.70;;;;;;;19.22;100.00;100548.96;88634;273;25546;-71
2023/09/15 08:57:44;;;;;;;17.00;13.60;;;;;;;19.22;100.00;100553.30;88453;274;137160;-70
2023/09/15 08:59:49;;;;;;;15.70;14.10;;;;;;;19.15;100.00;100543.42;88591;274;23219;-71
2023/09/15 09:01:57;;;;;;;15.00;13.50;;;;;;;19.28;100.00;100554.91;89108;273;138084;-70
2023/09/15 09:04:02;;;;;;;16.30;14.60;;;;;;;19.36;100.00;100553.33;88432;276;25396;-69
2023/09/15 09:06:09;;;;;;;14.80;13.50;;;;;;;19.45;100.00;100556.30;88518;272;22555;-73
2023/09/15 09:08:13;;;;;;;15.00;13.70;;;;;;;19.53;100.00;100554.83;88551;272;138903;-72
2023/09/15 09:10:15;;;;;;;14.90;13.30;;;;;;;19.59;100.00;100554.79;88763;272;23887;-70
2023/09/15 09:12:17;;;;;;;15.10;13.00;;;;;;;19.61;100.00;100555.80;88605;277;136999;-65
2023/09/15 09:14:19;;;;;;;13.70;12.40;;;;;;;19.64;100.00;100540.23;88523;281;24035;-73
2023/09/15 09:16:21;;;;;;;15.50;14.00;;;;;;;19.78;100.00;100553.96;88407;273;137538;-74
2023/09/15 09:18:23;;;;;;;14.30;12.80;;;;;;;19.76;100.00;100554.41;88739;274;25093;-78
2023/09/15 09:20:28;;;;;;;14.00;12.70;;;;;;;19.74;100.00;100557.95;88594;277;137876;-76
2023/09/15 09:22:33;;;;;;;14.20;12.70;;;;;;;19.74;100.00;100558.75;88564;272;25140;-71